sensor_id;sensor_type;location;lat;lon;timestamp;pressure;altitude;pressure_sealevel;temperature;humidity
63395;BME280;49531;-34.520;150.798;2023-12-07T00:00:34;100792.16;;;26.67;52.88
63395;BME280;49531;-34.520;150.798;2023-12-07T00:03:01;100825.69;;;26.77;52.76
63395;BME280;49531;-34.520;150.798;2023-12-07T00:05:28;100869.72;;;26.81;52.84
63395;BME280;49531;-34.520;150.798;2023-12-07T00:07:55;100878.47;;;26.83;53.14
63395;BME280;49531;-34.520;150.798;2023-12-07T00:10:23;100850.06;;;26.92;52.94
63395;BME280;49531;-34.520;150.798;2023-12-07T00:12:50;100824.28;;;26.94;53.19
63395;BME280;49531;-34.520;150.798;2023-12-07T00:15:17;100837.13;;;26.98;52.92
63395;BME280;49531;-34.520;150.798;2023-12-07T00:17:44;100820.97;;;26.97;52.73
63395;BME280;49531;-34.520;150.798;2023-12-07T00:20:31;100863.78;;;27.11;52.75
63395;BME280;49531;-34.520;150.798;2023-12-07T00:22:58;100864.88;;;27.10;52.68
63395;BME280;49531;-34.520;150.798;2023-12-07T00:25:25;100869.25;;;27.11;52.90
63395;BME280;49531;-34.520;150.798;2023-12-07T00:27:52;100861.41;;;27.05;52.63
63395;BME280;49531;-34.520;150.798;2023-12-07T00:30:19;100875.16;;;27.18;52.85
63395;BME280;49531;-34.520;150.798;2023-12-07T00:32:47;100848.84;;;27.17;52.69
63395;BME280;49531;-34.520;150.798;2023-12-07T00:35:14;100856.44;;;27.20;52.59
63395;BME280;49531;-34.520;150.798;2023-12-07T00:37:42;100864.59;;;27.26;52.61
63395;BME280;49531;-34.520;150.798;2023-12-07T00:40:10;100871.09;;;27.30;52.65
63395;BME280;49531;-34.520;150.798;2023-12-07T00:42:38;100850.97;;;27.20;52.48
63395;BME280;49531;-34.520;150.798;2023-12-07T00:45:06;100856.47;;;27.34;52.49
63395;BME280;49531;-34.520;150.798;2023-12-07T00:47:33;100843.88;;;27.33;52.71
63395;BME280;49531;-34.520;150.798;2023-12-07T00:50:01;100850.91;;;27.39;52.65
63395;BME280;49531;-34.520;150.798;2023-12-07T00:52:28;100842.88;;;27.43;52.69
63395;BME280;49531;-34.520;150.798;2023-12-07T00:54:55;100843.78;;;27.38;52.60
63395;BME280;49531;-34.520;150.798;2023-12-07T00:57:23;100853.53;;;27.44;52.88
63395;BME280;49531;-34.520;150.798;2023-12-07T00:59:51;100848.56;;;27.46;52.74
63395;BME280;49531;-34.520;150.798;2023-12-07T01:02:18;100865.03;;;27.46;52.68
63395;BME280;49531;-34.520;150.798;2023-12-07T01:04:46;100849.97;;;27.44;52.79
63395;BME280;49531;-34.520;150.798;2023-12-07T01:07:13;100852.84;;;27.52;52.57
63395;BME280;49531;-34.520;150.798;2023-12-07T01:09:41;100852.63;;;27.49;52.66
63395;BME280;49531;-34.520;150.798;2023-12-07T01:12:08;100853.66;;;27.53;52.68
63395;BME280;49531;-34.520;150.798;2023-12-07T01:14:35;100851.50;;;27.50;52.84
63395;BME280;49531;-34.520;150.798;2023-12-07T01:17:03;100843.19;;;27.55;52.37
63395;BME280;49531;-34.520;150.798;2023-12-07T01:19:31;100839.72;;;27.49;52.69
63395;BME280;49531;-34.520;150.798;2023-12-07T01:21:58;100845.13;;;27.54;52.59
63395;BME280;49531;-34.520;150.798;2023-12-07T01:24:25;100849.19;;;27.57;52.53
63395;BME280;49531;-34.520;150.798;2023-12-07T01:26:53;100847.97;;;27.63;52.76
63395;BME280;49531;-34.520;150.798;2023-12-07T01:29:21;100845.53;;;27.62;52.54
63395;BME280;49531;-34.520;150.798;2023-12-07T01:31:48;100865.25;;;27.64;52.53
63395;BME280;49531;-34.520;150.798;2023-12-07T01:34:17;100844.72;;;27.61;52.56
63395;BME280;49531;-34.520;150.798;2023-12-07T01:36:45;100850.91;;;27.67;52.48
63395;BME280;49531;-34.520;150.798;2023-12-07T01:39:13;100849.50;;;27.69;52.33
63395;BME280;49531;-34.520;150.798;2023-12-07T01:41:40;100850.81;;;27.72;52.35
63395;BME280;49531;-34.520;150.798;2023-12-07T01:44:07;100854.06;;;27.74;52.20
63395;BME280;49531;-34.520;150.798;2023-12-07T01:46:35;100866.97;;;27.73;52.44
63395;BME280;49531;-34.520;150.798;2023-12-07T01:49:03;100862.00;;;27.75;52.54
63395;BME280;49531;-34.520;150.798;2023-12-07T01:51:31;100841.88;;;27.66;52.49
63395;BME280;49531;-34.520;150.798;2023-12-07T01:54:00;100860.56;;;27.78;52.25
63395;BME280;49531;-34.520;150.798;2023-12-07T01:56:28;100858.34;;;27.80;52.36
63395;BME280;49531;-34.520;150.798;2023-12-07T01:58:57;100856.72;;;27.79;52.29
63395;BME280;49531;-34.520;150.798;2023-12-07T02:01:26;100867.88;;;27.96;52.01
63395;BME280;49531;-34.520;150.798;2023-12-07T02:03:53;100876.50;;;28.03;51.68
63395;BME280;49531;-34.520;150.798;2023-12-07T02:06:21;100865.19;;;28.05;51.92
63395;BME280;49531;-34.520;150.798;2023-12-07T02:08:49;100869.88;;;28.04;52.31
63395;BME280;49531;-34.520;150.798;2023-12-07T02:11:18;100866.84;;;28.06;52.44
63395;BME280;49531;-34.520;150.798;2023-12-07T02:13:46;100863.78;;;28.21;52.21
63395;BME280;49531;-34.520;150.798;2023-12-07T02:16:36;100841.50;;;28.23;52.06
63395;BME280;49531;-34.520;150.798;2023-12-07T02:19:31;100872.06;;;28.43;51.79
63395;BME280;49531;-34.520;150.798;2023-12-07T02:22:14;100852.31;;;28.41;51.70
63395;BME280;49531;-34.520;150.798;2023-12-07T02:24:54;100863.56;;;28.53;51.54
63395;BME280;49531;-34.520;150.798;2023-12-07T02:27:39;100842.44;;;28.40;51.61
63395;BME280;49531;-34.520;150.798;2023-12-07T02:30:08;100871.38;;;28.60;51.38
63395;BME280;49531;-34.520;150.798;2023-12-07T02:32:37;100870.56;;;28.60;51.42
63395;BME280;49531;-34.520;150.798;2023-12-07T02:35:25;100877.09;;;28.64;51.54
63395;BME280;49531;-34.520;150.798;2023-12-07T02:37:54;100858.28;;;28.57;51.28
63395;BME280;49531;-34.520;150.798;2023-12-07T02:40:25;100881.34;;;28.70;51.22
63395;BME280;49531;-34.520;150.798;2023-12-07T02:42:54;100871.97;;;28.71;51.11
63395;BME280;49531;-34.520;150.798;2023-12-07T02:45:22;100879.94;;;28.81;51.15
63395;BME280;49531;-34.520;150.798;2023-12-07T02:47:50;100855.03;;;28.77;50.88
63395;BME280;49531;-34.520;150.798;2023-12-07T02:50:17;100841.75;;;28.79;50.79
63395;BME280;49531;-34.520;150.798;2023-12-07T02:52:45;100832.59;;;28.84;50.63
63395;BME280;49531;-34.520;150.798;2023-12-07T02:55:13;100846.22;;;28.89;50.68
63395;BME280;49531;-34.520;150.798;2023-12-07T02:57:46;100855.72;;;28.83;50.92
63395;BME280;49531;-34.520;150.798;2023-12-07T03:00:13;100838.59;;;28.86;50.65
63395;BME280;49531;-34.520;150.798;2023-12-07T03:02:41;100854.78;;;28.87;50.66
63395;BME280;49531;-34.520;150.798;2023-12-07T03:05:09;100849.69;;;28.81;50.96
63395;BME280;49531;-34.520;150.798;2023-12-07T03:07:37;100855.28;;;28.90;50.79
63395;BME280;49531;-34.520;150.798;2023-12-07T03:10:04;100842.34;;;28.90;50.54
63395;BME280;49531;-34.520;150.798;2023-12-07T03:12:32;100841.59;;;28.98;50.42
63395;BME280;49531;-34.520;150.798;2023-12-07T03:15:00;100845.97;;;28.99;50.60
63395;BME280;49531;-34.520;150.798;2023-12-07T03:17:27;100844.97;;;28.95;50.32
63395;BME280;49531;-34.520;150.798;2023-12-07T03:19:54;100842.09;;;29.00;50.40
63395;BME280;49531;-34.520;150.798;2023-12-07T03:22:22;100848.59;;;29.04;50.43
63395;BME280;49531;-34.520;150.798;2023-12-07T03:24:51;100843.22;;;28.99;50.15
63395;BME280;49531;-34.520;150.798;2023-12-07T03:27:19;100829.47;;;28.99;50.56
63395;BME280;49531;-34.520;150.798;2023-12-07T03:29:48;100845.78;;;28.96;50.41
63395;BME280;49531;-34.520;150.798;2023-12-07T03:32:17;100841.47;;;29.03;50.21
63395;BME280;49531;-34.520;150.798;2023-12-07T03:34:45;100824.22;;;28.89;50.55
63395;BME280;49531;-34.520;150.798;2023-12-07T03:37:12;100833.28;;;28.90;50.36
63395;BME280;49531;-34.520;150.798;2023-12-07T03:39:40;100845.28;;;28.94;50.52
63395;BME280;49531;-34.520;150.798;2023-12-07T03:42:07;100849.66;;;28.95;50.16
63395;BME280;49531;-34.520;150.798;2023-12-07T03:44:35;100843.66;;;28.93;50.28
63395;BME280;49531;-34.520;150.798;2023-12-07T03:47:04;100837.22;;;28.97;50.17
63395;BME280;49531;-34.520;150.798;2023-12-07T03:49:32;100842.91;;;29.01;50.33
63395;BME280;49531;-34.520;150.798;2023-12-07T03:51:59;100839.22;;;29.05;50.06
63395;BME280;49531;-34.520;150.798;2023-12-07T03:54:26;100854.47;;;29.11;49.88
63395;BME280;49531;-34.520;150.798;2023-12-07T03:56:54;100852.03;;;29.10;50.33
63395;BME280;49531;-34.520;150.798;2023-12-07T03:59:21;100832.41;;;29.03;50.28
63395;BME280;49531;-34.520;150.798;2023-12-07T04:01:49;100852.66;;;28.84;50.73
63395;BME280;49531;-34.520;150.798;2023-12-07T04:04:17;100852.66;;;28.62;51.20
63395;BME280;49531;-34.520;150.798;2023-12-07T04:06:44;100848.81;;;28.49;51.57
63395;BME280;49531;-34.520;150.798;2023-12-07T04:09:11;100853.31;;;28.45;51.98
63395;BME280;49531;-34.520;150.798;2023-12-07T04:11:39;100848.19;;;28.30;51.96
63395;BME280;49531;-34.520;150.798;2023-12-07T04:14:06;100861.84;;;28.08;52.24
63395;BME280;49531;-34.520;150.798;2023-12-07T04:16:33;100866.16;;;27.86;53.06
63395;BME280;49531;-34.520;150.798;2023-12-07T04:19:01;100863.72;;;27.99;52.71
63395;BME280;49531;-34.520;150.798;2023-12-07T04:21:28;100879.44;;;28.07;52.57
63395;BME280;49531;-34.520;150.798;2023-12-07T04:23:56;100866.63;;;28.16;53.15
63395;BME280;49531;-34.520;150.798;2023-12-07T04:26:24;100863.38;;;28.28;52.81
63395;BME280;49531;-34.520;150.798;2023-12-07T04:28:51;100861.75;;;28.27;52.87
63395;BME280;49531;-34.520;150.798;2023-12-07T04:31:20;100849.75;;;28.09;52.98
63395;BME280;49531;-34.520;150.798;2023-12-07T04:33:47;100861.03;;;28.07;53.03
63395;BME280;49531;-34.520;150.798;2023-12-07T04:36:15;100857.25;;;28.17;52.75
63395;BME280;49531;-34.520;150.798;2023-12-07T04:38:42;100867.63;;;28.20;52.87
63395;BME280;49531;-34.520;150.798;2023-12-07T04:41:09;100876.91;;;28.10;53.13
63395;BME280;49531;-34.520;150.798;2023-12-07T04:43:37;100873.84;;;28.12;53.17
63395;BME280;49531;-34.520;150.798;2023-12-07T04:46:05;100870.81;;;28.00;53.43
63395;BME280;49531;-34.520;150.798;2023-12-07T04:48:32;100871.97;;;27.85;53.42
63395;BME280;49531;-34.520;150.798;2023-12-07T04:51:00;100885.59;;;27.90;53.42
63395;BME280;49531;-34.520;150.798;2023-12-07T04:53:27;100894.81;;;28.08;53.22
63395;BME280;49531;-34.520;150.798;2023-12-07T04:55:54;100888.44;;;27.99;53.46
63395;BME280;49531;-34.520;150.798;2023-12-07T04:58:21;100877.91;;;28.01;53.35
63395;BME280;49531;-34.520;150.798;2023-12-07T05:00:48;100875.19;;;28.01;53.51
63395;BME280;49531;-34.520;150.798;2023-12-07T05:03:15;100881.38;;;28.06;52.81
63395;BME280;49531;-34.520;150.798;2023-12-07T05:05:42;100878.84;;;28.10;52.65
63395;BME280;49531;-34.520;150.798;2023-12-07T05:08:10;100876.00;;;28.01;53.00
63395;BME280;49531;-34.520;150.798;2023-12-07T05:10:37;100868.69;;;27.97;53.08
63395;BME280;49531;-34.520;150.798;2023-12-07T05:13:08;100864.84;;;27.84;53.43
63395;BME280;49531;-34.520;150.798;2023-12-07T05:15:35;100879.38;;;27.84;53.40
63395;BME280;49531;-34.520;150.798;2023-12-07T05:18:04;100885.06;;;27.74;53.31
63395;BME280;49531;-34.520;150.798;2023-12-07T05:20:31;100887.41;;;27.67;53.69
63395;BME280;49531;-34.520;150.798;2023-12-07T05:22:58;100889.03;;;27.54;54.04
63395;BME280;49531;-34.520;150.798;2023-12-07T05:25:25;100891.88;;;27.63;54.04
63395;BME280;49531;-34.520;150.798;2023-12-07T05:27:52;100880.28;;;27.52;54.26
63395;BME280;49531;-34.520;150.798;2023-12-07T05:30:19;100892.25;;;27.43;54.57
63395;BME280;49531;-34.520;150.798;2023-12-07T05:32:47;100910.44;;;27.39;54.71
63395;BME280;49531;-34.520;150.798;2023-12-07T05:35:14;100902.91;;;27.31;54.60
63395;BME280;49531;-34.520;150.798;2023-12-07T05:37:41;100913.88;;;27.31;54.59
63395;BME280;49531;-34.520;150.798;2023-12-07T05:40:09;100929.28;;;27.27;54.70
63395;BME280;49531;-34.520;150.798;2023-12-07T05:42:38;100924.53;;;27.18;54.56
63395;BME280;49531;-34.520;150.798;2023-12-07T05:45:06;100915.34;;;27.09;54.74
63395;BME280;49531;-34.520;150.798;2023-12-07T05:47:33;100926.53;;;27.13;54.97
63395;BME280;49531;-34.520;150.798;2023-12-07T05:50:00;100925.94;;;27.16;54.68
63395;BME280;49531;-34.520;150.798;2023-12-07T05:52:29;100921.44;;;27.20;54.75
63395;BME280;49531;-34.520;150.798;2023-12-07T05:54:56;100918.00;;;27.14;54.80
63395;BME280;49531;-34.520;150.798;2023-12-07T05:57:23;100922.91;;;27.17;54.97
63395;BME280;49531;-34.520;150.798;2023-12-07T05:59:50;100925.13;;;27.15;54.92
63395;BME280;49531;-34.520;150.798;2023-12-07T06:02:17;100915.88;;;27.11;54.96
63395;BME280;49531;-34.520;150.798;2023-12-07T06:04:47;100914.53;;;27.09;55.17
63395;BME280;49531;-34.520;150.798;2023-12-07T06:07:16;100915.66;;;27.08;55.39
63395;BME280;49531;-34.520;150.798;2023-12-07T06:09:43;100916.47;;;27.08;55.17
63395;BME280;49531;-34.520;150.798;2023-12-07T06:12:10;100934.16;;;27.16;55.02
63395;BME280;49531;-34.520;150.798;2023-12-07T06:14:38;100946.06;;;27.25;54.75
63395;BME280;49531;-34.520;150.798;2023-12-07T06:17:05;100959.91;;;27.34;54.37
63395;BME280;49531;-34.520;150.798;2023-12-07T06:19:34;100962.94;;;27.32;54.39
63395;BME280;49531;-34.520;150.798;2023-12-07T06:22:01;100983.91;;;27.42;54.11
63395;BME280;49531;-34.520;150.798;2023-12-07T06:24:28;100973.63;;;27.34;54.03
63395;BME280;49531;-34.520;150.798;2023-12-07T06:26:55;100980.25;;;27.46;53.90
63395;BME280;49531;-34.520;150.798;2023-12-07T06:29:23;100977.00;;;27.44;53.84
63395;BME280;49531;-34.520;150.798;2023-12-07T06:31:50;101016.50;;;27.62;53.66
63395;BME280;49531;-34.520;150.798;2023-12-07T06:34:17;101010.56;;;27.55;53.52
63395;BME280;49531;-34.520;150.798;2023-12-07T06:36:46;101024.72;;;27.62;53.70
63395;BME280;49531;-34.520;150.798;2023-12-07T06:39:14;101030.13;;;27.67;53.59
63395;BME280;49531;-34.520;150.798;2023-12-07T06:41:41;101021.25;;;27.56;53.31
63395;BME280;49531;-34.520;150.798;2023-12-07T06:44:08;101041.91;;;27.68;53.65
63395;BME280;49531;-34.520;150.798;2023-12-07T06:46:35;101043.84;;;27.67;53.61
63395;BME280;49531;-34.520;150.798;2023-12-07T06:49:02;101037.25;;;27.68;53.42
63395;BME280;49531;-34.520;150.798;2023-12-07T06:51:29;101027.38;;;27.67;53.59
63395;BME280;49531;-34.520;150.798;2023-12-07T06:53:56;101028.50;;;27.66;53.47
63395;BME280;49531;-34.520;150.798;2023-12-07T06:56:24;101033.78;;;27.63;53.55
63395;BME280;49531;-34.520;150.798;2023-12-07T06:58:51;101017.13;;;27.59;53.29
63395;BME280;49531;-34.520;150.798;2023-12-07T07:01:18;101022.78;;;27.63;53.25
63395;BME280;49531;-34.520;150.798;2023-12-07T07:03:48;101014.16;;;27.69;53.01
63395;BME280;49531;-34.520;150.798;2023-12-07T07:06:15;101013.28;;;27.74;53.13
63395;BME280;49531;-34.520;150.798;2023-12-07T07:08:43;101008.69;;;27.69;53.17
63395;BME280;49531;-34.520;150.798;2023-12-07T07:11:13;101012.53;;;27.68;53.24
63395;BME280;49531;-34.520;150.798;2023-12-07T07:13:41;100990.56;;;27.54;52.62
63395;BME280;49531;-34.520;150.798;2023-12-07T07:16:08;101006.59;;;27.47;52.88
63395;BME280;49531;-34.520;150.798;2023-12-07T07:18:38;100986.13;;;27.40;53.19
63395;BME280;49531;-34.520;150.798;2023-12-07T07:21:18;100959.81;;;27.39;53.27
63395;BME280;49531;-34.520;150.798;2023-12-07T07:23:48;100990.34;;;27.51;53.15
63395;BME280;49531;-34.520;150.798;2023-12-07T07:26:16;100982.34;;;27.36;53.13
63395;BME280;49531;-34.520;150.798;2023-12-07T07:28:49;100990.00;;;27.39;53.35
63395;BME280;49531;-34.520;150.798;2023-12-07T07:31:17;100994.19;;;27.50;53.34
63395;BME280;49531;-34.520;150.798;2023-12-07T07:33:45;100960.16;;;27.51;53.23
63395;BME280;49531;-34.520;150.798;2023-12-07T07:36:14;100956.09;;;27.48;53.61
63395;BME280;49531;-34.520;150.798;2023-12-07T07:38:43;100995.91;;;27.46;53.53
63395;BME280;49531;-34.520;150.798;2023-12-07T07:41:10;101015.63;;;27.48;53.32
63395;BME280;49531;-34.520;150.798;2023-12-07T07:43:38;101000.19;;;27.52;53.23
63395;BME280;49531;-34.520;150.798;2023-12-07T07:46:05;100992.78;;;27.52;53.35
63395;BME280;49531;-34.520;150.798;2023-12-07T07:48:32;101005.69;;;27.52;53.36
63395;BME280;49531;-34.520;150.798;2023-12-07T07:50:59;100992.25;;;27.50;53.49
63395;BME280;49531;-34.520;150.798;2023-12-07T07:53:27;100996.94;;;27.50;53.50
63395;BME280;49531;-34.520;150.798;2023-12-07T07:55:54;100998.34;;;27.47;53.68
63395;BME280;49531;-34.520;150.798;2023-12-07T07:58:21;100989.09;;;27.43;53.50
63395;BME280;49531;-34.520;150.798;2023-12-07T08:00:48;100970.28;;;27.37;53.65
63395;BME280;49531;-34.520;150.798;2023-12-07T08:03:16;100954.50;;;27.29;53.61
63395;BME280;49531;-34.520;150.798;2023-12-07T08:05:43;100956.63;;;27.32;53.73
63395;BME280;49531;-34.520;150.798;2023-12-07T08:08:10;100955.22;;;27.34;53.65
63395;BME280;49531;-34.520;150.798;2023-12-07T08:10:37;100924.75;;;27.36;53.66
63395;BME280;49531;-34.520;150.798;2023-12-07T08:13:05;100908.38;;;27.31;53.90
63395;BME280;49531;-34.520;150.798;2023-12-07T08:15:34;100914.59;;;27.36;53.69
63395;BME280;49531;-34.520;150.798;2023-12-07T08:18:01;100941.59;;;27.29;53.73
63395;BME280;49531;-34.520;150.798;2023-12-07T08:20:28;100967.75;;;27.40;53.69
63395;BME280;49531;-34.520;150.798;2023-12-07T08:22:55;100967.09;;;27.30;53.86
63395;BME280;49531;-34.520;150.798;2023-12-07T08:25:22;100957.84;;;27.26;53.67
63395;BME280;49531;-34.520;150.798;2023-12-07T08:27:50;100962.94;;;27.32;53.95
63395;BME280;49531;-34.520;150.798;2023-12-07T08:30:17;100962.34;;;27.35;53.73
63395;BME280;49531;-34.520;150.798;2023-12-07T08:32:46;100948.94;;;27.34;53.67
63395;BME280;49531;-34.520;150.798;2023-12-07T08:35:13;100945.88;;;27.35;53.88
63395;BME280;49531;-34.520;150.798;2023-12-07T08:37:40;100943.88;;;27.08;54.73
63395;BME280;49531;-34.520;150.798;2023-12-07T08:40:07;100964.88;;;26.99;55.04
63395;BME280;49531;-34.520;150.798;2023-12-07T08:42:37;100963.47;;;27.02;55.22
63395;BME280;49531;-34.520;150.798;2023-12-07T08:45:05;100956.97;;;26.92;55.01
63395;BME280;49531;-34.520;150.798;2023-12-07T08:47:33;100943.25;;;26.79;55.41
63395;BME280;49531;-34.520;150.798;2023-12-07T08:50:00;100949.34;;;26.89;55.24
63395;BME280;49531;-34.520;150.798;2023-12-07T08:52:27;100946.69;;;26.84;55.33
63395;BME280;49531;-34.520;150.798;2023-12-07T08:54:55;100962.91;;;26.81;55.49
63395;BME280;49531;-34.520;150.798;2023-12-07T08:57:22;100968.69;;;26.79;55.84
63395;BME280;49531;-34.520;150.798;2023-12-07T08:59:49;100973.75;;;26.72;55.94
63395;BME280;49531;-34.520;150.798;2023-12-07T09:02:16;100979.22;;;26.72;56.04
63395;BME280;49531;-34.520;150.798;2023-12-07T09:04:43;100965.44;;;26.58;56.12
63395;BME280;49531;-34.520;150.798;2023-12-07T09:07:10;100970.25;;;26.48;56.84
63395;BME280;49531;-34.520;150.798;2023-12-07T09:09:42;100958.75;;;26.46;56.95
63395;BME280;49531;-34.520;150.798;2023-12-07T09:12:14;100957.72;;;26.42;57.27
63395;BME280;49531;-34.520;150.798;2023-12-07T09:14:42;100970.53;;;26.46;57.06
63395;BME280;49531;-34.520;150.798;2023-12-07T09:17:09;100943.13;;;26.46;57.02
63395;BME280;49531;-34.520;150.798;2023-12-07T09:19:36;100919.88;;;26.44;57.37
63395;BME280;49531;-34.520;150.798;2023-12-07T09:22:03;100889.34;;;26.37;57.51
63395;BME280;49531;-34.520;150.798;2023-12-07T09:24:31;100850.81;;;26.28;57.69
63395;BME280;49531;-34.520;150.798;2023-12-07T09:26:58;100864.59;;;26.42;57.25
63395;BME280;49531;-34.520;150.798;2023-12-07T09:29:25;100891.53;;;26.53;56.46
63395;BME280;49531;-34.520;150.798;2023-12-07T09:31:53;100905.16;;;26.58;56.26
63395;BME280;49531;-34.520;150.798;2023-12-07T09:34:20;100928.72;;;26.78;55.57
63395;BME280;49531;-34.520;150.798;2023-12-07T09:36:47;100954.41;;;27.01;55.00
63395;BME280;49531;-34.520;150.798;2023-12-07T09:39:14;100966.34;;;27.10;54.51
63395;BME280;49531;-34.520;150.798;2023-12-07T09:41:44;100970.63;;;27.16;54.38
63395;BME280;49531;-34.520;150.798;2023-12-07T09:44:13;100979.56;;;27.22;54.49
63395;BME280;49531;-34.520;150.798;2023-12-07T09:46:40;100978.63;;;27.13;54.20
63395;BME280;49531;-34.520;150.798;2023-12-07T09:49:07;100987.28;;;27.20;54.50
63395;BME280;49531;-34.520;150.798;2023-12-07T09:51:36;101001.50;;;27.22;54.10
63395;BME280;49531;-34.520;150.798;2023-12-07T09:54:04;100988.81;;;27.26;53.89
63395;BME280;49531;-34.520;150.798;2023-12-07T09:56:31;100977.75;;;27.17;53.82
63395;BME280;49531;-34.520;150.798;2023-12-07T09:58:58;100984.03;;;27.18;53.90
63395;BME280;49531;-34.520;150.798;2023-12-07T10:01:29;101014.75;;;27.34;53.48
63395;BME280;49531;-34.520;150.798;2023-12-07T10:04:35;101012.75;;;27.39;53.41
63395;BME280;49531;-34.520;150.798;2023-12-07T10:07:03;101014.16;;;27.37;53.39
63395;BME280;49531;-34.520;150.798;2023-12-07T10:09:31;101023.13;;;27.42;53.39
63395;BME280;49531;-34.520;150.798;2023-12-07T10:12:05;101033.28;;;27.42;53.26
63395;BME280;49531;-34.520;150.798;2023-12-07T10:14:33;101014.16;;;27.37;53.35
63395;BME280;49531;-34.520;150.798;2023-12-07T10:17:00;101037.75;;;27.38;53.23
63395;BME280;49531;-34.520;150.798;2023-12-07T10:19:28;101038.34;;;27.35;53.19
63395;BME280;49531;-34.520;150.798;2023-12-07T10:21:55;101062.94;;;27.40;53.37
63395;BME280;49531;-34.520;150.798;2023-12-07T10:24:24;101065.19;;;27.38;53.46
63395;BME280;49531;-34.520;150.798;2023-12-07T10:26:52;101068.97;;;27.42;53.28
63395;BME280;49531;-34.520;150.798;2023-12-07T10:29:23;101068.44;;;27.40;53.20
63395;BME280;49531;-34.520;150.798;2023-12-07T10:31:50;101058.56;;;27.39;53.29
63395;BME280;49531;-34.520;150.798;2023-12-07T10:34:20;101045.69;;;27.39;53.26
63395;BME280;49531;-34.520;150.798;2023-12-07T10:36:47;101045.16;;;27.37;53.19
63395;BME280;49531;-34.520;150.798;2023-12-07T10:39:15;101039.59;;;27.42;53.22
63395;BME280;49531;-34.520;150.798;2023-12-07T10:41:43;101040.19;;;27.39;53.05
63395;BME280;49531;-34.520;150.798;2023-12-07T10:44:14;101046.78;;;27.38;53.19
63395;BME280;49531;-34.520;150.798;2023-12-07T10:46:42;101048.72;;;27.38;53.40
63395;BME280;49531;-34.520;150.798;2023-12-07T10:49:15;101058.06;;;27.37;53.45
63395;BME280;49531;-34.520;150.798;2023-12-07T10:51:51;101061.91;;;27.36;53.49
63395;BME280;49531;-34.520;150.798;2023-12-07T10:54:22;101050.72;;;27.32;53.49
63395;BME280;49531;-34.520;150.798;2023-12-07T10:56:54;101049.91;;;27.32;53.75
63395;BME280;49531;-34.520;150.798;2023-12-07T10:59:22;101067.19;;;27.32;53.78
63395;BME280;49531;-34.520;150.798;2023-12-07T11:01:51;101051.38;;;27.24;53.73
63395;BME280;49531;-34.520;150.798;2023-12-07T11:04:20;101060.44;;;27.24;53.53
63395;BME280;49531;-34.520;150.798;2023-12-07T11:06:49;101058.81;;;27.23;53.53
63395;BME280;49531;-34.520;150.798;2023-12-07T11:09:25;101062.88;;;27.26;53.78
63395;BME280;49531;-34.520;150.798;2023-12-07T11:12:18;101065.69;;;27.21;53.80
63395;BME280;49531;-34.520;150.798;2023-12-07T11:14:47;101067.13;;;27.18;54.04
63395;BME280;49531;-34.520;150.798;2023-12-07T11:17:15;101070.47;;;27.15;54.05
63395;BME280;49531;-34.520;150.798;2023-12-07T11:19:49;101068.63;;;27.11;54.12
63395;BME280;49531;-34.520;150.798;2023-12-07T11:22:16;101064.03;;;27.06;54.16
63395;BME280;49531;-34.520;150.798;2023-12-07T11:25:03;101064.03;;;27.06;54.18
63395;BME280;49531;-34.520;150.798;2023-12-07T11:27:32;101063.56;;;26.99;54.26
63395;BME280;49531;-34.520;150.798;2023-12-07T11:30:00;101049.38;;;26.92;54.05
63395;BME280;49531;-34.520;150.798;2023-12-07T11:32:28;101071.19;;;27.02;54.09
63395;BME280;49531;-34.520;150.798;2023-12-07T11:34:59;101075.56;;;27.03;54.24
63395;BME280;49531;-34.520;150.798;2023-12-07T11:40:43;101097.00;;;27.01;54.28
63395;BME280;49531;-34.520;150.798;2023-12-07T11:43:18;101101.38;;;27.02;54.23
63395;BME280;49531;-34.520;150.798;2023-12-07T11:45:51;101098.41;;;26.99;54.22
63395;BME280;49531;-34.520;150.798;2023-12-07T11:48:20;101074.56;;;26.94;54.09
63395;BME280;49531;-34.520;150.798;2023-12-07T11:53:29;101070.47;;;26.97;54.07
63395;BME280;49531;-34.520;150.798;2023-12-07T11:55:58;101075.69;;;26.93;54.37
63395;BME280;49531;-34.520;150.798;2023-12-07T11:58:27;101075.44;;;26.89;54.36
63395;BME280;49531;-34.520;150.798;2023-12-07T12:00:55;101075.50;;;26.84;54.62
63395;BME280;49531;-34.520;150.798;2023-12-07T12:03:23;101073.47;;;26.52;55.89
63395;BME280;49531;-34.520;150.798;2023-12-07T12:05:51;101073.81;;;26.46;55.66
63395;BME280;49531;-34.520;150.798;2023-12-07T12:08:19;101059.53;;;26.49;55.67
63395;BME280;49531;-34.520;150.798;2023-12-07T12:10:46;101066.81;;;26.58;55.14
63395;BME280;49531;-34.520;150.798;2023-12-07T12:13:16;101050.66;;;26.57;55.25
63395;BME280;49531;-34.520;150.798;2023-12-07T12:15:43;101072.25;;;26.64;55.10
63395;BME280;49531;-34.520;150.798;2023-12-07T12:18:10;101055.81;;;26.64;54.72
63395;BME280;49531;-34.520;150.798;2023-12-07T12:20:40;101049.97;;;26.70;54.53
63395;BME280;49531;-34.520;150.798;2023-12-07T12:23:07;101048.63;;;26.68;54.49
63395;BME280;49531;-34.520;150.798;2023-12-07T12:25:35;101047.00;;;26.67;54.69
63395;BME280;49531;-34.520;150.798;2023-12-07T12:28:03;101052.53;;;26.62;54.77
63395;BME280;49531;-34.520;150.798;2023-12-07T12:30:31;101042.84;;;26.69;54.49
63395;BME280;49531;-34.520;150.798;2023-12-07T12:32:59;101014.69;;;26.64;54.77